Time;durP1;ratioP1;P1;durP2;ratioP2;P2;SDS_P1;SDS_P2;PMS_P1;PMS_P2;Temp;Humidity;BMP_temperature;BMP_pressure;BME280_temperature;BME280_humidity;BME280_pressure;Samples;Min_cycle;Max_cycle;Signal;HPM_P1;HPM_P2
2022/03/20 00:00:26;;;;;;;9.18;4.80;;;6.40;99.90;;;;;;4996112;28;20593;-75
2022/03/20 00:02:53;;;;;;;8.45;4.50;;;6.40;99.90;;;;;;4996176;28;20038;-75
2022/03/20 00:05:19;;;;;;;9.10;4.80;;;6.40;99.90;;;;;;4996170;28;20113;-75
2022/03/20 00:07:46;;;;;;;8.00;4.63;;;6.40;99.90;;;;;;5012589;28;20045;-75
2022/03/20 00:10:14;;;;;;;8.68;4.65;;;6.30;99.90;;;;;;5012385;28;20053;-75
2022/03/20 00:12:40;;;;;;;7.57;4.35;;;6.30;99.90;;;;;;5012407;28;20128;-75
2022/03/20 00:15:07;;;;;;;11.95;4.82;;;6.30;99.90;;;;;;5012613;28;20045;-75
2022/03/20 00:17:33;;;;;;;8.38;4.22;;;6.20;99.90;;;;;;5012235;28;20197;-75
2022/03/20 00:19:59;;;;;;;8.43;5.10;;;6.20;99.90;;;;;;5012552;28;20060;-75
2022/03/20 00:22:25;;;;;;;10.93;4.95;;;6.20;99.90;;;;;;5012490;28;20478;-75
2022/03/20 00:24:51;;;;;;;7.85;4.57;;;6.10;99.90;;;;;;4995809;28;20067;-75
2022/03/20 00:27:17;;;;;;;8.77;4.75;;;6.10;99.90;;;;;;5012135;28;20472;-75
2022/03/20 00:29:44;;;;;;;9.10;4.70;;;6.10;99.90;;;;;;5012133;28;20053;-74
2022/03/20 00:32:11;;;;;;;6.72;4.43;;;6.10;99.90;;;;;;5012397;28;20084;-75
2022/03/20 00:34:37;;;;;;;9.70;5.03;;;6.00;99.90;;;;;;5012418;28;20041;-75
2022/03/20 00:37:03;;;;;;;10.18;4.70;;;6.00;99.90;;;;;;5011923;28;20046;-75
2022/03/20 00:39:29;;;;;;;8.88;4.32;;;6.00;99.90;;;;;;5012071;28;20030;-75
2022/03/20 00:41:55;;;;;;;8.10;4.75;;;6.00;99.90;;;;;;5011988;28;20044;-75
2022/03/20 00:44:21;;;;;;;8.75;4.25;;;6.00;99.90;;;;;;5011987;28;20473;-75
2022/03/20 00:46:48;;;;;;;10.65;4.32;;;6.00;99.90;;;;;;5012011;28;20128;-74
2022/03/20 00:49:14;;;;;;;9.32;4.60;;;5.90;99.90;;;;;;5012013;28;20045;-75
2022/03/20 00:51:40;;;;;;;11.15;4.93;;;5.90;99.90;;;;;;5011979;28;20064;-75
2022/03/20 00:54:06;;;;;;;7.15;4.60;;;5.90;99.90;;;;;;5011948;28;20038;-75
2022/03/20 00:56:31;;;;;;;7.10;4.68;;;5.90;99.90;;;;;;4995651;28;20164;-75
2022/03/20 00:58:57;;;;;;;9.98;4.75;;;5.80;99.90;;;;;;5011935;28;20398;-75
2022/03/20 01:01:23;;;;;;;10.27;5.15;;;5.80;99.90;;;;;;5013645;28;20053;-75
2022/03/20 01:03:48;;;;;;;7.65;5.10;;;5.80;99.90;;;;;;5015784;28;20049;-75
2022/03/20 01:06:14;;;;;;;10.30;5.07;;;5.70;99.90;;;;;;5015696;28;20049;-75
2022/03/20 01:08:40;;;;;;;7.13;4.38;;;5.70;99.90;;;;;;5015926;28;20042;-75
2022/03/20 01:11:07;;;;;;;9.63;4.88;;;5.60;99.90;;;;;;5015686;28;20045;-75
2022/03/20 01:13:33;;;;;;;8.18;4.82;;;5.60;99.90;;;;;;5015631;28;20045;-75
2022/03/20 01:15:59;;;;;;;10.18;5.25;;;5.60;99.90;;;;;;5015625;28;20052;-75
2022/03/20 01:18:25;;;;;;;10.07;5.20;;;5.60;99.90;;;;;;5015858;28;20033;-75
2022/03/20 01:20:54;;;;;;;12.50;5.57;;;5.50;99.90;;;;;;5015520;28;20038;-75
2022/03/20 01:23:23;;;;;;;10.48;5.07;;;5.50;99.90;;;;;;5015421;28;20499;-75
2022/03/20 01:25:50;;;;;;;9.50;4.88;;;5.40;99.90;;;;;;5015317;28;20037;-75
2022/03/20 01:28:16;;;;;;;11.02;5.97;;;5.40;99.90;;;;;;5015337;28;20038;-75
2022/03/20 01:30:42;;;;;;;11.52;5.60;;;5.40;99.90;;;;;;4998971;28;20483;-75
2022/03/20 01:33:08;;;;;;;12.35;5.20;;;5.30;99.90;;;;;;5015527;28;20128;-75
2022/03/20 01:35:35;;;;;;;10.98;5.32;;;5.30;99.90;;;;;;5015441;28;20383;-75
2022/03/20 01:38:01;;;;;;;10.13;5.60;;;5.30;99.90;;;;;;4998727;28;20080;-75
2022/03/20 01:40:27;;;;;;;12.00;5.40;;;5.20;99.90;;;;;;5015127;28;20038;-75
2022/03/20 01:42:53;;;;;;;10.60;5.50;;;5.20;99.90;;;;;;5015039;28;20037;-75
2022/03/20 01:45:22;;;;;;;12.75;5.05;;;5.20;99.90;;;;;;5014950;28;20029;-75
2022/03/20 01:47:49;;;;;;;10.52;6.10;;;5.20;99.90;;;;;;5015119;28;20041;-75
2022/03/20 01:50:22;;;;;;;9.82;5.78;;;5.20;99.90;;;;;;5014948;28;20050;-75
2022/03/20 01:52:49;;;;;;;12.18;5.82;;;5.20;99.90;;;;;;5015190;28;20042;-75
2022/03/20 01:55:16;;;;;;;9.95;5.63;;;5.10;99.90;;;;;;5014845;28;20045;-75
2022/03/20 01:57:44;;;;;;;13.75;6.38;;;5.10;99.90;;;;;;5014646;28;20490;-75
2022/03/20 02:00:11;;;;;;;14.45;5.88;;;5.10;99.90;;;;;;5014781;28;20441;-75
2022/03/20 02:02:36;;;;;;;10.25;5.47;;;5.10;99.90;;;;;;4998384;28;20037;-75
2022/03/20 02:05:04;;;;;;;12.70;5.63;;;5.10;99.90;;;;;;5015162;28;20041;-74
2022/03/20 02:07:34;;;;;;;11.07;6.10;;;5.10;99.90;;;;;;5014833;28;20049;-74
2022/03/20 02:10:00;;;;;;;9.88;5.97;;;5.10;99.90;;;;;;5014812;28;20042;-74
2022/03/20 02:12:26;;;;;;;11.82;6.07;;;5.00;99.90;;;;;;4997808;28;20045;-74
2022/03/20 02:14:52;;;;;;;12.00;5.85;;;5.00;99.90;;;;;;4998411;28;20050;-74
2022/03/20 02:17:18;;;;;;;9.38;5.53;;;5.00;99.90;;;;;;4997957;28;20048;-74
2022/03/20 02:19:45;;;;;;;13.82;6.88;;;4.90;99.90;;;;;;5014378;28;20053;-74
2022/03/20 02:22:11;;;;;;;9.77;6.40;;;4.90;99.90;;;;;;5014637;28;20044;-73
2022/03/20 02:24:44;;;;;;;11.95;6.82;;;5.00;99.90;;;;;;5014265;28;20041;-74
2022/03/20 02:27:18;;;;;;;11.10;6.17;;;5.00;99.90;;;;;;5014269;28;20033;-74
2022/03/20 02:29:49;;;;;;;11.75;6.75;;;5.00;99.90;;;;;;5014183;28;20536;-74
2022/03/20 02:32:17;;;;;;;11.80;6.32;;;5.00;99.90;;;;;;5014225;28;20038;-74
2022/03/20 02:34:48;;;;;;;11.52;6.50;;;4.90;99.90;;;;;;5014125;28;20041;-74
2022/03/20 02:37:14;;;;;;;10.50;6.18;;;4.90;99.90;;;;;;4997733;28;20042;-74
2022/03/20 02:39:41;;;;;;;15.13;6.93;;;4.80;99.90;;;;;;5013989;28;20457;-74
2022/03/20 02:42:07;;;;;;;11.32;7.10;;;4.80;99.90;;;;;;5014011;28;20041;-74
2022/03/20 02:44:59;;;;;;;10.77;6.70;;;4.80;99.90;;;;;;5013927;28;20061;-74
2022/03/20 02:47:27;;;;;;;10.80;7.47;;;4.80;99.90;;;;;;5013759;28;20494;-74
2022/03/20 02:49:55;;;;;;;12.88;7.22;;;4.70;99.90;;;;;;5013886;28;20115;-74
2022/03/20 02:52:24;;;;;;;14.23;7.50;;;4.70;99.90;;;;;;5014068;28;20479;-74
2022/03/20 02:54:50;;;;;;;12.05;7.32;;;4.70;99.90;;;;;;5013723;28;20037;-74
2022/03/20 02:57:16;;;;;;;12.80;7.80;;;4.60;99.90;;;;;;4997259;28;20478;-74
2022/03/20 02:59:41;;;;;;;13.45;7.60;;;4.60;99.90;;;;;;4997602;28;20073;-74
2022/03/20 03:02:11;;;;;;;12.88;7.38;;;4.70;99.90;;;;;;5013557;28;20517;-74
2022/03/20 03:04:43;;;;;;;13.75;7.70;;;4.60;99.90;;;;;;5013566;28;20168;-74
2022/03/20 03:07:09;;;;;;;13.50;7.43;;;4.60;99.90;;;;;;5013980;28;20044;-74
2022/03/20 03:12:19;;;;;;;11.60;7.25;;;4.50;99.90;;;;;;5013380;28;20490;-74
2022/03/20 03:17:28;;;;;;;13.05;8.02;;;4.40;99.90;;;;;;5013178;28;20042;-74
2022/03/20 03:19:55;;;;;;;13.02;7.63;;;4.40;99.90;;;;;;5013243;28;20034;-74
2022/03/20 03:22:22;;;;;;;13.18;7.93;;;4.30;99.90;;;;;;5013246;28;20084;-74
2022/03/20 03:24:47;;;;;;;13.00;7.50;;;4.30;99.90;;;;;;5012478;28;20041;-74
2022/03/20 03:27:13;;;;;;;19.25;8.20;;;4.30;99.90;;;;;;5013094;28;20042;-74
2022/03/20 03:29:38;;;;;;;13.48;8.00;;;4.20;99.90;;;;;;5013073;28;20046;-74
2022/03/20 03:32:05;;;;;;;14.32;8.48;;;4.20;99.90;;;;;;5013051;28;20038;-74
2022/03/20 03:37:18;;;;;;;17.10;8.35;;;4.10;99.90;;;;;;5012795;28;20045;-74
2022/03/20 03:39:44;;;;;;;14.02;8.40;;;4.10;99.90;;;;;;5012918;28;20042;-74
2022/03/20 03:42:11;;;;;;;13.20;7.97;;;4.10;99.90;;;;;;4996547;28;20044;-74
2022/03/20 03:44:36;;;;;;;13.70;7.88;;;4.10;99.90;;;;;;5012881;28;20066;-73
2022/03/20 03:47:03;;;;;;;14.90;8.43;;;4.00;99.90;;;;;;5012900;28;20120;-74
2022/03/20 03:49:28;;;;;;;11.32;8.48;;;4.00;99.90;;;;;;5012783;28;20037;-74
2022/03/20 03:51:54;;;;;;;12.77;7.82;;;3.90;99.90;;;;;;5012742;28;20092;-74
2022/03/20 03:54:20;;;;;;;13.80;8.38;;;3.90;99.90;;;;;;4996344;28;20462;-74
2022/03/20 03:56:45;;;;;;;17.08;8.90;;;3.90;99.90;;;;;;5012476;28;20038;-74
2022/03/20 03:59:11;;;;;;;15.93;8.80;;;3.90;99.90;;;;;;5012600;28;20037;-74
2022/03/20 04:01:36;;;;;;;13.68;9.05;;;3.80;99.90;;;;;;5012822;28;20034;-74
2022/03/20 04:04:02;;;;;;;12.63;8.45;;;3.90;99.90;;;;;;5012763;28;20475;-74
2022/03/20 04:06:28;;;;;;;13.80;9.07;;;3.80;99.90;;;;;;5012424;28;20038;-74
2022/03/20 04:08:54;;;;;;;16.23;9.65;;;3.80;99.90;;;;;;5012431;28;20045;-74
2022/03/20 04:11:20;;;;;;;16.65;9.52;;;3.80;99.90;;;;;;5012407;28;20046;-74
2022/03/20 04:13:46;;;;;;;16.33;8.98;;;3.80;99.90;;;;;;5012409;28;20045;-74
2022/03/20 04:16:12;;;;;;;12.63;9.05;;;3.90;99.90;;;;;;5012209;28;20049;-74
2022/03/20 04:18:37;;;;;;;12.82;8.73;;;3.90;99.90;;;;;;5012311;28;20041;-74
2022/03/20 04:21:04;;;;;;;14.50;9.50;;;3.80;99.90;;;;;;5012266;28;20044;-74
2022/03/20 04:23:44;;;;;;;14.95;10.00;;;3.80;99.90;;;;;;5012259;28;20034;-74
2022/03/20 04:26:10;;;;;;;14.13;9.73;;;3.80;99.90;;;;;;5012451;28;20048;-74
2022/03/20 04:28:36;;;;;;;14.77;10.38;;;3.80;99.90;;;;;;5012446;28;20033;-74
2022/03/20 04:31:02;;;;;;;16.40;9.45;;;3.80;99.90;;;;;;5012140;28;20495;-74
2022/03/20 04:33:29;;;;;;;17.13;11.38;;;3.80;99.90;;;;;;5012145;28;20081;-74
2022/03/20 04:35:55;;;;;;;15.25;10.38;;;3.80;99.90;;;;;;5011949;28;20042;-74
2022/03/20 04:38:21;;;;;;;14.68;10.15;;;3.80;99.90;;;;;;5012105;28;20040;-74
2022/03/20 04:40:48;;;;;;;15.20;10.57;;;3.80;99.90;;;;;;4996046;28;20069;-74
2022/03/20 04:43:15;;;;;;;15.95;10.75;;;3.80;99.90;;;;;;4995954;28;20107;-74
2022/03/20 04:45:40;;;;;;;23.58;10.65;;;3.80;99.90;;;;;;5012047;28;20120;-74
2022/03/20 04:59:02;;;;;;;16.88;11.88;;;3.70;99.90;;;;;;5011923;28;20038;-73
2022/03/20 05:01:28;;;;;;;17.92;11.32;;;3.70;99.90;;;;;;5012134;28;20042;-73
2022/03/20 05:03:53;;;;;;;16.73;11.32;;;3.70;99.90;;;;;;5011871;28;20053;-74
2022/03/20 05:06:19;;;;;;;19.17;11.68;;;3.70;99.90;;;;;;5012026;28;20042;-74
2022/03/20 05:08:44;;;;;;;19.42;12.27;;;3.70;99.90;;;;;;4995451;28;20572;-74
2022/03/20 05:13:54;;;;;;;18.30;12.15;;;3.60;99.90;;;;;;5011802;28;20494;-74
2022/03/20 05:16:20;;;;;;;18.65;12.32;;;3.60;99.90;;;;;;5011593;28;20041;-74
2022/03/20 05:18:45;;;;;;;17.65;11.77;;;3.50;99.90;;;;;;4995435;28;20041;-74
2022/03/20 05:21:11;;;;;;;18.13;12.07;;;3.60;99.90;;;;;;5011978;28;20034;-74
2022/03/20 05:23:37;;;;;;;21.65;12.13;;;3.60;99.90;;;;;;5011687;28;20524;-74
2022/03/20 05:26:03;;;;;;;17.55;12.23;;;3.50;99.90;;;;;;5011629;28;20112;-74
2022/03/20 05:28:28;;;;;;;16.38;12.02;;;3.50;99.90;;;;;;5011648;28;20073;-74
2022/03/20 05:30:54;;;;;;;19.63;12.48;;;3.50;99.90;;;;;;4995575;28;20153;-74
2022/03/20 05:33:20;;;;;;;17.63;12.50;;;3.50;99.90;;;;;;5011595;28;20521;-74
2022/03/20 05:35:45;;;;;;;18.38;12.43;;;3.50;99.90;;;;;;4995416;28;20084;-74
2022/03/20 05:38:12;;;;;;;17.58;11.85;;;3.50;99.90;;;;;;5011458;28;20089;-74
2022/03/20 05:40:39;;;;;;;18.15;12.07;;;3.50;99.90;;;;;;5011796;28;20065;-74
2022/03/20 05:43:08;;;;;;;18.95;13.20;;;3.50;99.90;;;;;;5011534;28;20046;-74
2022/03/20 05:45:34;;;;;;;18.80;13.13;;;3.50;99.90;;;;;;5011518;28;20502;-74
2022/03/20 05:48:00;;;;;;;17.90;12.45;;;3.50;99.90;;;;;;5013859;28;20050;-74
2022/03/20 05:50:26;;;;;;;17.42;13.10;;;3.50;99.90;;;;;;5015211;28;20045;-74
2022/03/20 05:52:52;;;;;;;19.10;12.25;;;3.40;99.90;;;;;;5015184;28;20395;-74
2022/03/20 05:55:18;;;;;;;21.23;13.45;;;3.40;99.90;;;;;;5014885;28;20046;-74
2022/03/20 05:58:02;;;;;;;18.48;13.00;;;3.40;99.90;;;;;;5014786;28;20046;-74
2022/03/20 06:00:28;;;;;;;21.05;13.18;;;3.40;99.90;;;;;;5015096;28;20038;-74
2022/03/20 06:02:54;;;;;;;17.83;12.20;;;3.40;99.90;;;;;;5014989;28;20037;-74
2022/03/20 06:05:20;;;;;;;19.15;12.65;;;3.40;99.90;;;;;;5014934;28;20453;-74
2022/03/20 06:07:47;;;;;;;19.27;13.18;;;3.40;99.90;;;;;;5014594;28;20041;-74
2022/03/20 06:10:15;;;;;;;19.25;12.57;;;3.40;99.90;;;;;;5014628;28;20042;-74
2022/03/20 06:12:41;;;;;;;16.40;12.73;;;3.50;99.90;;;;;;5014853;28;20522;-74
2022/03/20 06:15:08;;;;;;;18.27;13.52;;;3.50;99.90;;;;;;5014525;28;20134;-74
2022/03/20 06:17:37;;;;;;;17.38;13.10;;;3.50;99.90;;;;;;4998013;28;20502;-74
2022/03/20 06:20:05;;;;;;;17.17;12.70;;;3.50;99.90;;;;;;5014734;28;20030;-74
2022/03/20 06:22:31;;;;;;;20.50;13.32;;;3.50;99.90;;;;;;5014386;28;20406;-73
2022/03/20 06:24:56;;;;;;;22.52;13.98;;;3.50;99.90;;;;;;5014305;28;20030;-74
2022/03/20 06:27:22;;;;;;;21.50;13.60;;;3.50;99.90;;;;;;5014467;28;20049;-74
2022/03/20 06:29:47;;;;;;;18.85;13.43;;;3.50;99.90;;;;;;5014784;28;20516;-74
2022/03/20 06:32:14;;;;;;;19.83;13.63;;;3.60;99.90;;;;;;5014177;28;20565;-74
2022/03/20 06:34:39;;;;;;;20.63;14.55;;;3.50;99.90;;;;;;4998057;28;20038;-74
2022/03/20 06:37:05;;;;;;;18.20;13.10;;;3.60;99.90;;;;;;4997650;28;20548;-74
2022/03/20 06:39:31;;;;;;;18.27;14.13;;;3.60;99.90;;;;;;5014114;28;20084;-74
2022/03/20 06:41:57;;;;;;;20.23;13.20;;;3.60;99.90;;;;;;5014025;28;20073;-74
2022/03/20 06:44:22;;;;;;;22.58;14.32;;;3.60;99.90;;;;;;5013997;28;20044;-74
2022/03/20 06:46:48;;;;;;;18.95;13.82;;;3.70;99.90;;;;;;5013749;28;20096;-74
2022/03/20 06:49:13;;;;;;;20.92;13.95;;;3.70;99.90;;;;;;5014130;28;20038;-74
2022/03/20 06:51:39;;;;;;;19.52;13.32;;;3.70;99.90;;;;;;5013830;28;20418;-74
2022/03/20 06:54:07;;;;;;;23.33;14.18;;;3.70;99.90;;;;;;4997516;28;20077;-74
2022/03/20 06:56:32;;;;;;;21.55;14.13;;;3.70;99.90;;;;;;5013640;28;20042;-74
2022/03/20 06:58:58;;;;;;;22.33;15.07;;;3.70;99.90;;;;;;5012906;28;20080;-73
2022/03/20 07:01:24;;;;;;;19.90;14.13;;;3.80;99.90;;;;;;4997307;28;20499;-73
2022/03/20 07:03:49;;;;;;;23.38;13.77;;;3.80;99.90;;;;;;4997304;28;20121;-73
2022/03/20 07:06:15;;;;;;;20.55;14.05;;;3.80;99.90;;;;;;5013682;28;20077;-73
2022/03/20 07:08:41;;;;;;;21.30;14.05;;;3.90;99.90;;;;;;5013541;28;20454;-73
2022/03/20 07:11:06;;;;;;;19.90;14.25;;;3.90;99.90;;;;;;5013726;28;20042;-73
2022/03/20 07:13:52;;;;;;;19.45;13.50;;;4.00;99.90;;;;;;5013424;28;20485;-73
2022/03/20 07:16:18;;;;;;;20.73;14.32;;;4.10;99.90;;;;;;5013197;28;20124;-74
2022/03/20 07:18:48;;;;;;;17.73;13.88;;;4.10;99.90;;;;;;5013326;28;20053;-73
2022/03/20 07:21:18;;;;;;;19.63;13.18;;;4.10;99.90;;;;;;5013250;28;20042;-73
2022/03/20 07:23:44;;;;;;;21.98;14.73;;;4.20;99.90;;;;;;5013393;28;20049;-73
2022/03/20 07:31:37;;;;;;;19.25;14.23;;;4.30;99.90;;;;;;5013113;28;20038;-73
2022/03/20 07:34:03;;;;;;;19.73;14.30;;;4.30;99.90;;;;;;5013068;28;20038;-74
2022/03/20 07:36:28;;;;;;;20.13;13.80;;;4.40;99.90;;;;;;5013053;28;20037;-74
2022/03/20 07:38:54;;;;;;;21.30;13.95;;;4.40;99.90;;;;;;5012959;28;20462;-73
2022/03/20 07:41:21;;;;;;;19.35;14.65;;;4.40;99.90;;;;;;5013005;28;20037;-73
2022/03/20 07:43:49;;;;;;;18.92;13.65;;;4.40;99.90;;;;;;5013220;28;20103;-74
2022/03/20 07:46:14;;;;;;;18.65;14.02;;;4.50;99.90;;;;;;5012554;28;20038;-73
2022/03/20 07:48:40;;;;;;;21.67;14.82;;;4.50;99.90;;;;;;4996511;28;20124;-73
2022/03/20 07:51:07;;;;;;;19.27;14.55;;;4.60;99.90;;;;;;5012808;28;20046;-73
2022/03/20 07:53:32;;;;;;;23.13;14.88;;;4.70;99.90;;;;;;5012995;28;20128;-73
2022/03/20 07:55:58;;;;;;;21.17;14.60;;;4.80;99.90;;;;;;5012546;28;20613;-74
2022/03/20 07:58:23;;;;;;;22.65;15.18;;;4.80;99.90;;;;;;5012900;28;20042;-73
2022/03/20 08:00:49;;;;;;;19.23;14.30;;;4.90;99.90;;;;;;5012636;28;20410;-74
2022/03/20 08:03:15;;;;;;;19.95;14.75;;;5.00;99.90;;;;;;4996209;28;20121;-74
2022/03/20 08:05:40;;;;;;;22.25;14.50;;;5.10;99.90;;;;;;4996661;28;20038;-74
2022/03/20 08:08:09;;;;;;;21.83;14.52;;;5.30;99.90;;;;;;4996375;28;20100;-74
2022/03/20 08:10:34;;;;;;;22.98;14.52;;;5.40;99.90;;;;;;4995868;28;20056;-74
2022/03/20 08:13:00;;;;;;;19.70;14.65;;;5.60;99.90;;;;;;5012816;28;20128;-74
2022/03/20 08:15:26;;;;;;;21.52;14.77;;;5.70;99.10;;;;;;5012401;28;20120;-74
2022/03/20 08:17:51;;;;;;;22.35;14.73;;;5.80;98.40;;;;;;5012249;28;20041;-74
2022/03/20 08:20:17;;;;;;;21.58;15.07;;;5.90;97.10;;;;;;5012620;28;20088;-74
2022/03/20 08:22:43;;;;;;;23.40;15.23;;;5.90;96.70;;;;;;5012356;28;20498;-74
2022/03/20 08:25:12;;;;;;;20.48;14.77;;;6.10;96.00;;;;;;5012310;28;20034;-74
2022/03/20 08:27:46;;;;;;;20.05;13.98;;;6.20;94.40;;;;;;5012188;28;20056;-74
2022/03/20 08:30:15;;;;;;;22.83;14.40;;;6.40;92.50;;;;;;5012561;28;20042;-74
2022/03/20 08:32:47;;;;;;;22.75;15.48;;;6.60;92.00;;;;;;4995911;28;20042;-74
2022/03/20 08:35:14;;;;;;;20.43;14.60;;;6.70;90.10;;;;;;5012210;28;20042;-74
2022/03/20 08:37:43;;;;;;;21.50;15.00;;;6.70;89.70;;;;;;5012070;28;20414;-74
2022/03/20 08:40:19;;;;;;;19.67;14.75;;;6.50;88.20;;;;;;5012128;28;20038;-74
2022/03/20 08:42:55;;;;;;;20.38;14.65;;;6.40;87.70;;;;;;5012109;28;20564;-74
2022/03/20 08:45:29;;;;;;;20.10;14.82;;;6.40;83.70;;;;;;5012101;28;20093;-74
2022/03/20 08:47:55;;;;;;;21.33;15.20;;;6.50;87.90;;;;;;4995621;28;20046;-74
2022/03/20 08:50:21;;;;;;;19.95;14.75;;;6.50;88.10;;;;;;5011994;28;20045;-74
2022/03/20 08:52:47;;;;;;;20.13;14.88;;;6.90;83.20;;;;;;4995909;28;20081;-74
2022/03/20 08:55:14;;;;;;;28.67;15.20;;;7.40;78.60;;;;;;5012065;28;20045;-74
2022/03/20 08:57:42;;;;;;;24.02;15.50;;;7.90;73.60;;;;;;5012648;28;20089;-74
2022/03/20 09:00:09;;;;;;;21.23;14.75;;;8.40;68.90;;;;;;5011930;28;20034;-75
2022/03/20 09:02:36;;;;;;;22.95;15.73;;;9.00;64.10;;;;;;5011871;28;20525;-75
2022/03/20 09:05:02;;;;;;;21.27;15.27;;;9.60;62.60;;;;;;5012676;28;20046;-75
2022/03/20 09:07:28;;;;;;;20.77;15.32;;;10.30;60.60;;;;;;5011767;28;20041;-75
2022/03/20 09:09:54;;;;;;;19.55;15.10;;;10.80;56.90;;;;;;5011882;28;20430;-75
2022/03/20 09:12:20;;;;;;;17.60;14.35;;;11.20;55.90;;;;;;5011793;28;20046;-75
2022/03/20 09:14:45;;;;;;;26.25;16.02;;;11.80;55.30;;;;;;5011818;28;20053;-75
2022/03/20 09:19:57;;;;;;;20.23;15.48;;;12.70;50.90;;;;;;5011778;28;20522;-75
2022/03/20 09:22:25;;;;;;;20.33;15.15;;;13.10;49.90;;;;;;5013471;28;20045;-75
2022/03/20 09:24:51;;;;;;;20.67;15.77;;;13.50;48.80;;;;;;5015506;28;20121;-75
2022/03/20 09:27:16;;;;;;;22.27;15.65;;;13.70;47.70;;;;;;5015382;28;20128;-75
2022/03/20 09:29:42;;;;;;;22.15;16.23;;;13.90;46.60;;;;;;5015349;28;20049;-75
2022/03/20 09:32:08;;;;;;;23.10;16.20;;;13.90;46.20;;;;;;5015349;28;20041;-75
2022/03/20 09:34:34;;;;;;;20.63;15.85;;;14.20;46.40;;;;;;5015272;28;20112;-75
2022/03/20 09:37:00;;;;;;;23.67;16.50;;;14.40;45.90;;;;;;5015134;28;20189;-75
2022/03/20 09:39:26;;;;;;;22.15;15.82;;;14.40;44.90;;;;;;5015239;28;20146;-75
2022/03/20 09:41:54;;;;;;;22.92;15.70;;;14.50;45.10;;;;;;5015446;28;20034;-75
2022/03/20 09:44:25;;;;;;;23.10;16.55;;;14.50;44.20;;;;;;4998754;28;20042;-75
2022/03/20 09:46:50;;;;;;;22.80;17.33;;;14.60;43.50;;;;;;5014835;28;20408;-75
2022/03/20 09:49:19;;;;;;;22.55;16.23;;;14.50;44.20;;;;;;5015249;28;20038;-75
2022/03/20 09:51:44;;;;;;;25.83;17.17;;;14.60;43.90;;;;;;4998574;28;20461;-74
2022/03/20 09:54:13;;;;;;;26.20;16.73;;;14.40;44.10;;;;;;5014941;28;20038;-76
2022/03/20 09:56:41;;;;;;;22.77;17.02;;;14.30;44.30;;;;;;4998337;28;20498;-76
2022/03/20 09:59:07;;;;;;;25.27;17.15;;;14.30;44.60;;;;;;4999610;28;20057;-76
2022/03/20 10:01:37;;;;;;;22.00;16.23;;;14.40;44.50;;;;;;4998486;28;20045;-76
2022/03/20 10:04:08;;;;;;;21.20;16.15;;;14.50;44.40;;;;;;5014951;28;20121;-76
2022/03/20 10:06:38;;;;;;;22.38;16.52;;;14.50;44.10;;;;;;4998340;28;20049;-76
2022/03/20 10:09:05;;;;;;;25.27;16.92;;;14.40;44.00;;;;;;5014752;28;20128;-76
2022/03/20 10:11:33;;;;;;;23.23;17.25;;;14.30;44.60;;;;;;5014964;28;20077;-76
2022/03/20 10:14:19;;;;;;;25.02;17.48;;;14.20;44.40;;;;;;5014577;28;20129;-76
2022/03/20 10:17:13;;;;;;;21.80;17.33;;;14.10;44.30;;;;;;4998271;28;20046;-77
2022/03/20 10:19:40;;;;;;;26.63;17.27;;;13.90;44.70;;;;;;5014677;28;20124;-76
2022/03/20 10:22:11;;;;;;;21.95;17.38;;;14.00;45.30;;;;;;5014739;28;20034;-77
2022/03/20 10:24:39;;;;;;;24.02;18.05;;;14.00;44.60;;;;;;5014407;28;20048;-78
2022/03/20 10:27:13;;;;;;;25.02;17.67;;;14.00;45.00;;;;;;5014284;28;20037;-77
2022/03/20 10:29:54;;;;;;;24.63;17.70;;;14.10;45.00;;;;;;4997943;28;20045;-77
2022/03/20 10:32:20;;;;;;;22.65;17.50;;;14.10;44.20;;;;;;5014122;28;20080;-77
2022/03/20 10:34:55;;;;;;;24.45;17.13;;;14.20;44.70;;;;;;4997834;28;20046;-77
2022/03/20 10:37:47;;;;;;;23.83;18.00;;;14.20;44.70;;;;;;5014068;28;20085;-77
2022/03/20 10:40:17;;;;;;;26.33;17.80;;;14.20;44.00;;;;;;4997642;28;20454;-77
2022/03/20 10:43:03;;;;;;;23.45;17.65;;;14.20;44.30;;;;;;4997802;28;20046;-77
2022/03/20 10:45:29;;;;;;;22.20;17.73;;;14.20;44.80;;;;;;5014415;28;20046;-77
2022/03/20 10:48:01;;;;;;;23.08;18.67;;;14.30;44.40;;;;;;5013818;28;20520;-77
2022/03/20 10:50:27;;;;;;;22.10;18.15;;;14.40;43.90;;;;;;4997634;28;20130;-78
2022/03/20 10:53:08;;;;;;;23.05;18.50;;;14.40;44.20;;;;;;5013822;28;20124;-78
2022/03/20 10:55:34;;;;;;;24.40;18.73;;;14.50;43.30;;;;;;4997756;28;20064;-78
2022/03/20 10:58:20;;;;;;;25.45;18.83;;;14.30;44.20;;;;;;4997338;28;20490;-77
2022/03/20 11:00:46;;;;;;;27.80;19.58;;;14.50;43.00;;;;;;5013753;28;20030;-77
2022/03/20 11:03:21;;;;;;;24.85;18.90;;;14.40;43.30;;;;;;5013658;28;20121;-77
2022/03/20 11:05:47;;;;;;;25.17;19.17;;;14.40;43.00;;;;;;4997247;28;20041;-77
2022/03/20 11:08:12;;;;;;;24.50;18.23;;;14.40;43.30;;;;;;4997266;28;20064;-77
2022/03/20 11:10:43;;;;;;;23.02;18.45;;;14.40;43.40;;;;;;5013629;28;20164;-77
2022/03/20 11:13:09;;;;;;;28.23;18.90;;;14.60;43.30;;;;;;5013754;28;20038;-77
2022/03/20 11:15:37;;;;;;;23.52;18.38;;;14.70;43.00;;;;;;5013443;28;20506;-77
2022/03/20 11:18:04;;;;;;;24.40;18.80;;;14.80;42.90;;;;;;5013255;28;20407;-77
2022/03/20 11:20:31;;;;;;;24.38;18.90;;;15.10;43.00;;;;;;4997765;28;20498;-77
2022/03/20 11:22:59;;;;;;;25.15;17.92;;;15.10;42.50;;;;;;5016553;28;20048;-77
2022/03/20 11:25:26;;;;;;;25.90;19.08;;;15.00;42.30;;;;;;5015558;28;20162;-77
2022/03/20 11:28:01;;;;;;;24.85;19.60;;;15.10;41.70;;;;;;4998536;28;20048;-77
2022/03/20 11:30:29;;;;;;;22.30;17.60;;;15.10;41.60;;;;;;5014377;28;20084;-77
2022/03/20 11:32:57;;;;;;;25.50;19.13;;;15.10;42.40;;;;;;5014043;28;20050;-77
2022/03/20 11:35:29;;;;;;;25.92;20.25;;;15.10;41.90;;;;;;5013691;28;20136;-77
2022/03/20 11:37:58;;;;;;;27.52;18.88;;;15.10;42.20;;;;;;4996861;28;20038;-77
2022/03/20 11:40:25;;;;;;;27.35;19.52;;;15.20;42.20;;;;;;4997311;28;20088;-75
2022/03/20 11:43:22;;;;;;;24.40;18.67;;;15.40;42.40;;;;;;5013574;28;20044;-75
2022/03/20 11:46:13;;;;;;;25.55;18.88;;;15.60;41.50;;;;;;5012549;28;20034;-75
2022/03/20 11:48:38;;;;;;;24.40;19.60;;;15.80;41.10;;;;;;5013545;28;20464;-75
2022/03/20 11:51:04;;;;;;;24.00;19.35;;;15.90;41.20;;;;;;5013239;28;20045;-75
2022/03/20 11:53:31;;;;;;;27.30;19.45;;;16.00;41.10;;;;;;4997034;28;20133;-75
2022/03/20 11:55:57;;;;;;;26.38;19.15;;;15.90;41.10;;;;;;5013567;28;20414;-74
2022/03/20 11:58:24;;;;;;;24.65;19.05;;;15.70;40.80;;;;;;5012954;28;20042;-76
2022/03/20 12:01:05;;;;;;;24.17;18.52;;;15.80;41.10;;;;;;4996531;28;20069;-76
2022/03/20 12:04:00;;;;;;;24.33;19.52;;;15.80;40.60;;;;;;5013121;28;20521;-77
2022/03/20 12:06:52;;;;;;;27.65;19.40;;;15.80;41.10;;;;;;5013223;28;20073;-76
2022/03/20 12:09:23;;;;;;;23.17;19.17;;;15.90;40.90;;;;;;5015559;28;20065;-76
2022/03/20 12:12:07;;;;;;;26.05;19.10;;;16.00;41.10;;;;;;5014569;28;20133;-76
2022/03/20 12:14:38;;;;;;;26.10;19.00;;;16.00;40.00;;;;;;5014065;28;20075;-76
2022/03/20 12:17:04;;;;;;;23.02;19.70;;;16.20;41.00;;;;;;5014113;28;20053;-76
2022/03/20 12:19:48;;;;;;;24.10;19.88;;;16.30;40.70;;;;;;5013878;28;20034;-76
2022/03/20 12:22:19;;;;;;;25.95;19.48;;;16.30;39.70;;;;;;5013930;28;20041;-77
2022/03/20 12:24:54;;;;;;;23.30;18.63;;;16.10;40.60;;;;;;4997346;28;20052;-77
2022/03/20 12:27:22;;;;;;;25.23;19.63;;;15.90;40.50;;;;;;5013675;28;20045;-76
2022/03/20 12:29:52;;;;;;;26.83;19.52;;;15.60;40.90;;;;;;5013264;28;20506;-77
2022/03/20 12:32:22;;;;;;;21.52;18.40;;;15.30;41.20;;;;;;4996875;28;20053;-77
2022/03/20 12:34:58;;;;;;;22.58;18.60;;;15.10;41.30;;;;;;5012874;28;20517;-77
2022/03/20 12:37:30;;;;;;;27.10;19.85;;;15.00;41.10;;;;;;4996483;28;20042;-76
2022/03/20 12:40:06;;;;;;;24.15;19.38;;;14.80;42.10;;;;;;5012821;28;20046;-77
2022/03/20 12:42:33;;;;;;;27.73;19.58;;;14.90;42.60;;;;;;5012628;28;20034;-77
2022/03/20 12:44:59;;;;;;;27.50;20.42;;;14.70;42.50;;;;;;5012893;28;20042;-77
2022/03/20 12:47:28;;;;;;;26.40;19.65;;;14.70;42.80;;;;;;5012195;28;20124;-76
2022/03/20 12:50:05;;;;;;;22.25;18.83;;;14.70;42.80;;;;;;5012764;28;20038;-76
2022/03/20 12:52:32;;;;;;;25.15;19.98;;;14.60;43.00;;;;;;5013635;28;20073;-76
2022/03/20 12:55:00;;;;;;;29.05;21.20;;;14.50;43.20;;;;;;4997521;28;20529;-76
2022/03/20 12:57:42;;;;;;;24.65;19.90;;;14.40;43.00;;;;;;5017257;28;20042;-76
2022/03/20 13:00:14;;;;;;;25.50;19.73;;;14.30;43.00;;;;;;5017142;28;20078;-77
2022/03/20 13:03:03;;;;;;;27.42;20.25;;;14.10;43.10;;;;;;5001565;28;20073;-77
2022/03/20 13:05:51;;;;;;;28.13;20.35;;;14.00;43.40;;;;;;5017390;28;20084;-77
2022/03/20 13:08:24;;;;;;;24.85;19.83;;;13.80;43.60;;;;;;5017607;28;20038;-76
2022/03/20 13:10:51;;;;;;;;;;;13.60;44.10;;;;;;5019911;28;20046;-77
2022/03/20 13:13:20;;;;;;;26.10;19.10;;;13.40;44.60;;;;;;5004142;28;20011;-77